sensor_id;sensor_type;location;lat;lon;timestamp;temperature;humidity
71304;DHT22;59091;47.446;19.148;2023-03-23T00:01:53;9.75;64.48
71304;DHT22;59091;47.446;19.148;2023-03-23T00:04:19;9.72;64.39
71304;DHT22;59091;47.446;19.148;2023-03-23T00:06:46;9.66;64.52
71304;DHT22;59091;47.446;19.148;2023-03-23T00:09:13;9.65;64.82
71304;DHT22;59091;47.446;19.148;2023-03-23T00:11:41;9.61;64.64
71304;DHT22;59091;47.446;19.148;2023-03-23T00:14:09;9.59;64.51
71304;DHT22;59091;47.446;19.148;2023-03-23T00:16:39;9.58;64.42
71304;DHT22;59091;47.446;19.148;2023-03-23T00:19:11;9.56;64.42
71304;DHT22;59091;47.446;19.148;2023-03-23T00:21:41;9.54;64.49
71304;DHT22;59091;47.446;19.148;2023-03-23T00:24:17;9.51;64.50
71304;DHT22;59091;47.446;19.148;2023-03-23T00:26:45;9.49;64.41
71304;DHT22;59091;47.446;19.148;2023-03-23T00:29:17;9.46;64.37
71304;DHT22;59091;47.446;19.148;2023-03-23T00:31:45;9.39;64.52
71304;DHT22;59091;47.446;19.148;2023-03-23T00:34:12;9.35;64.73
71304;DHT22;59091;47.446;19.148;2023-03-23T00:36:38;9.38;64.71
71304;DHT22;59091;47.446;19.148;2023-03-23T00:39:09;9.35;64.80
71304;DHT22;59091;47.446;19.148;2023-03-23T00:41:34;9.30;65.29
71304;DHT22;59091;47.446;19.148;2023-03-23T00:44:02;9.31;65.36
71304;DHT22;59091;47.446;19.148;2023-03-23T00:46:27;9.24;65.38
71304;DHT22;59091;47.446;19.148;2023-03-23T00:48:54;9.24;65.31
71304;DHT22;59091;47.446;19.148;2023-03-23T00:51:20;9.24;65.40
71304;DHT22;59091;47.446;19.148;2023-03-23T00:53:46;9.23;65.43
71304;DHT22;59091;47.446;19.148;2023-03-23T00:56:12;9.20;65.58
71304;DHT22;59091;47.446;19.148;2023-03-23T00:58:37;9.17;65.54
71304;DHT22;59091;47.446;19.148;2023-03-23T01:01:03;9.14;65.71
71304;DHT22;59091;47.446;19.148;2023-03-23T01:03:30;9.11;65.68
71304;DHT22;59091;47.446;19.148;2023-03-23T01:05:55;9.11;65.46
71304;DHT22;59091;47.446;19.148;2023-03-23T01:08:22;9.07;65.59
71304;DHT22;59091;47.446;19.148;2023-03-23T01:10:49;9.05;65.57
71304;DHT22;59091;47.446;19.148;2023-03-23T01:13:14;9.03;65.52
71304;DHT22;59091;47.446;19.148;2023-03-23T01:15:40;9.01;65.59
71304;DHT22;59091;47.446;19.148;2023-03-23T01:18:07;9.03;65.68
71304;DHT22;59091;47.446;19.148;2023-03-23T01:20:34;8.97;65.81
71304;DHT22;59091;47.446;19.148;2023-03-23T01:23:00;8.93;65.80
71304;DHT22;59091;47.446;19.148;2023-03-23T01:25:35;8.90;65.86
71304;DHT22;59091;47.446;19.148;2023-03-23T01:28:00;8.91;66.18
71304;DHT22;59091;47.446;19.148;2023-03-23T01:30:26;8.94;65.94
71304;DHT22;59091;47.446;19.148;2023-03-23T01:32:53;8.91;65.65
71304;DHT22;59091;47.446;19.148;2023-03-23T01:35:19;8.90;65.62
71304;DHT22;59091;47.446;19.148;2023-03-23T01:37:44;8.84;65.61
71304;DHT22;59091;47.446;19.148;2023-03-23T01:40:10;8.83;65.73
71304;DHT22;59091;47.446;19.148;2023-03-23T01:42:37;8.79;66.01
71304;DHT22;59091;47.446;19.148;2023-03-23T01:45:24;8.72;66.01
71304;DHT22;59091;47.446;19.148;2023-03-23T01:48:03;8.72;66.23
71304;DHT22;59091;47.446;19.148;2023-03-23T01:50:34;8.72;66.34
71304;DHT22;59091;47.446;19.148;2023-03-23T01:53:01;8.77;66.31
71304;DHT22;59091;47.446;19.148;2023-03-23T01:55:28;8.76;66.30
71304;DHT22;59091;47.446;19.148;2023-03-23T01:57:55;8.73;66.35
71304;DHT22;59091;47.446;19.148;2023-03-23T02:00:22;8.72;66.35
71304;DHT22;59091;47.446;19.148;2023-03-23T02:02:49;8.69;66.45
71304;DHT22;59091;47.446;19.148;2023-03-23T02:05:22;8.67;66.55
71304;DHT22;59091;47.446;19.148;2023-03-23T02:07:50;8.64;66.51
71304;DHT22;59091;47.446;19.148;2023-03-23T02:10:16;8.63;66.48
71304;DHT22;59091;47.446;19.148;2023-03-23T02:12:42;8.63;66.47
71304;DHT22;59091;47.446;19.148;2023-03-23T02:15:08;8.63;66.58
71304;DHT22;59091;47.446;19.148;2023-03-23T02:20:19;8.53;66.51
71304;DHT22;59091;47.446;19.148;2023-03-23T02:30:49;8.52;66.88
71304;DHT22;59091;47.446;19.148;2023-03-23T02:35:51;8.48;66.74
71304;DHT22;59091;47.446;19.148;2023-03-23T02:39:05;8.48;66.66
71304;DHT22;59091;47.446;19.148;2023-03-23T02:41:19;8.46;66.83
71304;DHT22;59091;47.446;19.148;2023-03-23T02:43:47;8.43;66.85
71304;DHT22;59091;47.446;19.148;2023-03-23T02:46:15;8.43;67.06
71304;DHT22;59091;47.446;19.148;2023-03-23T02:48:43;8.41;67.04
71304;DHT22;59091;47.446;19.148;2023-03-23T02:51:10;8.42;67.09
71304;DHT22;59091;47.446;19.148;2023-03-23T02:53:40;8.43;67.09
71304;DHT22;59091;47.446;19.148;2023-03-23T02:56:07;8.41;67.20
71304;DHT22;59091;47.446;19.148;2023-03-23T02:58:34;8.42;67.05
71304;DHT22;59091;47.446;19.148;2023-03-23T03:01:46;8.33;67.04
71304;DHT22;59091;47.446;19.148;2023-03-23T03:04:10;8.33;67.30
71304;DHT22;59091;47.446;19.148;2023-03-23T03:07:07;8.29;67.04
71304;DHT22;59091;47.446;19.148;2023-03-23T03:09:50;8.26;66.94
71304;DHT22;59091;47.446;19.148;2023-03-23T03:15:14;8.21;67.03
71304;DHT22;59091;47.446;19.148;2023-03-23T03:17:45;8.24;67.20
71304;DHT22;59091;47.446;19.148;2023-03-23T03:20:14;8.26;67.22
71304;DHT22;59091;47.446;19.148;2023-03-23T03:22:43;8.29;67.12
71304;DHT22;59091;47.446;19.148;2023-03-23T03:25:11;8.28;67.22
71304;DHT22;59091;47.446;19.148;2023-03-23T03:27:42;8.29;67.28
71304;DHT22;59091;47.446;19.148;2023-03-23T03:30:10;8.33;67.17
71304;DHT22;59091;47.446;19.148;2023-03-23T03:32:43;8.29;67.25
71304;DHT22;59091;47.446;19.148;2023-03-23T03:35:09;8.28;67.41
71304;DHT22;59091;47.446;19.148;2023-03-23T03:37:36;8.26;67.33
71304;DHT22;59091;47.446;19.148;2023-03-23T03:40:10;8.24;67.12
71304;DHT22;59091;47.446;19.148;2023-03-23T03:42:41;8.19;67.10
71304;DHT22;59091;47.446;19.148;2023-03-23T03:45:08;8.22;67.16
71304;DHT22;59091;47.446;19.148;2023-03-23T03:47:34;8.22;67.35
71304;DHT22;59091;47.446;19.148;2023-03-23T03:50:00;8.16;67.57
71304;DHT22;59091;47.446;19.148;2023-03-23T03:52:25;8.15;67.53
71304;DHT22;59091;47.446;19.148;2023-03-23T03:54:52;8.12;67.59
71304;DHT22;59091;47.446;19.148;2023-03-23T03:57:18;8.11;67.63
71304;DHT22;59091;47.446;19.148;2023-03-23T03:59:43;8.08;67.50
71304;DHT22;59091;47.446;19.148;2023-03-23T04:02:11;8.08;67.58
71304;DHT22;59091;47.446;19.148;2023-03-23T04:04:40;8.06;67.67
71304;DHT22;59091;47.446;19.148;2023-03-23T04:07:06;8.08;67.60
71304;DHT22;59091;47.446;19.148;2023-03-23T04:09:32;8.05;67.69
71304;DHT22;59091;47.446;19.148;2023-03-23T04:11:57;8.05;67.80
71304;DHT22;59091;47.446;19.148;2023-03-23T04:14:23;8.03;67.97
71304;DHT22;59091;47.446;19.148;2023-03-23T04:16:48;8.02;68.05
71304;DHT22;59091;47.446;19.148;2023-03-23T04:19:17;8.02;67.93
71304;DHT22;59091;47.446;19.148;2023-03-23T04:21:43;8.01;68.06
71304;DHT22;59091;47.446;19.148;2023-03-23T04:24:10;7.97;67.98
71304;DHT22;59091;47.446;19.148;2023-03-23T04:26:36;7.99;67.97
71304;DHT22;59091;47.446;19.148;2023-03-23T04:29:02;7.97;68.18
71304;DHT22;59091;47.446;19.148;2023-03-23T04:31:28;7.99;67.96
71304;DHT22;59091;47.446;19.148;2023-03-23T04:33:54;7.97;67.85
71304;DHT22;59091;47.446;19.148;2023-03-23T04:36:19;7.95;67.75
71304;DHT22;59091;47.446;19.148;2023-03-23T04:38:47;7.95;67.84
71304;DHT22;59091;47.446;19.148;2023-03-23T04:41:15;7.91;67.78
71304;DHT22;59091;47.446;19.148;2023-03-23T04:43:40;7.94;67.91
71304;DHT22;59091;47.446;19.148;2023-03-23T04:46:09;7.90;68.04
71304;DHT22;59091;47.446;19.148;2023-03-23T04:48:34;7.94;67.82
71304;DHT22;59091;47.446;19.148;2023-03-23T04:51:02;7.91;67.78
71304;DHT22;59091;47.446;19.148;2023-03-23T04:53:30;7.91;67.79
71304;DHT22;59091;47.446;19.148;2023-03-23T04:55:56;7.92;67.91
71304;DHT22;59091;47.446;19.148;2023-03-23T04:58:21;7.85;68.19
71304;DHT22;59091;47.446;19.148;2023-03-23T05:00:49;7.92;68.28
71304;DHT22;59091;47.446;19.148;2023-03-23T05:03:16;7.90;68.39
71304;DHT22;59091;47.446;19.148;2023-03-23T05:05:42;7.91;68.44
71304;DHT22;59091;47.446;19.148;2023-03-23T05:08:08;7.95;68.53
71304;DHT22;59091;47.446;19.148;2023-03-23T05:10:34;7.95;68.29
71304;DHT22;59091;47.446;19.148;2023-03-23T05:12:59;7.97;68.27
71304;DHT22;59091;47.446;19.148;2023-03-23T05:15:24;8.02;68.13
71304;DHT22;59091;47.446;19.148;2023-03-23T05:17:53;8.01;68.07
71304;DHT22;59091;47.446;19.148;2023-03-23T05:20:19;8.08;68.30
71304;DHT22;59091;47.446;19.148;2023-03-23T05:22:48;8.06;68.40
71304;DHT22;59091;47.446;19.148;2023-03-23T05:25:15;8.15;68.23
71304;DHT22;59091;47.446;19.148;2023-03-23T05:27:40;8.18;68.08
71304;DHT22;59091;47.446;19.148;2023-03-23T05:30:15;8.25;68.06
71304;DHT22;59091;47.446;19.148;2023-03-23T05:32:42;8.29;67.99
71304;DHT22;59091;47.446;19.148;2023-03-23T05:35:08;8.35;68.16
71304;DHT22;59091;47.446;19.148;2023-03-23T05:37:33;8.43;68.28
71304;DHT22;59091;47.446;19.148;2023-03-23T05:39:59;8.48;67.96
71304;DHT22;59091;47.446;19.148;2023-03-23T05:42:31;8.53;67.90
71304;DHT22;59091;47.446;19.148;2023-03-23T05:44:56;8.60;68.03
71304;DHT22;59091;47.446;19.148;2023-03-23T05:47:23;8.73;67.85
71304;DHT22;59091;47.446;19.148;2023-03-23T05:49:48;8.79;67.74
71304;DHT22;59091;47.446;19.148;2023-03-23T05:52:14;8.87;67.75
71304;DHT22;59091;47.446;19.148;2023-03-23T05:54:39;8.99;67.95
71304;DHT22;59091;47.446;19.148;2023-03-23T05:57:06;9.04;67.96
71304;DHT22;59091;47.446;19.148;2023-03-23T05:59:32;9.30;72.49
71304;DHT22;59091;47.446;19.148;2023-03-23T06:01:58;9.45;70.37
71304;DHT22;59091;47.446;19.148;2023-03-23T06:04:24;9.52;67.61
71304;DHT22;59091;47.446;19.148;2023-03-23T06:06:51;9.63;69.85
71304;DHT22;59091;47.446;19.148;2023-03-23T06:09:17;9.95;72.13
71304;DHT22;59091;47.446;19.148;2023-03-23T06:11:43;10.07;67.97
71304;DHT22;59091;47.446;19.148;2023-03-23T06:14:09;10.14;65.71
71304;DHT22;59091;47.446;19.148;2023-03-23T06:16:34;10.23;64.99
71304;DHT22;59091;47.446;19.148;2023-03-23T06:18:59;10.26;64.77
71304;DHT22;59091;47.446;19.148;2023-03-23T06:21:26;10.37;64.10
71304;DHT22;59091;47.446;19.148;2023-03-23T06:23:52;10.44;63.88
71304;DHT22;59091;47.446;19.148;2023-03-23T06:26:19;10.53;63.00
71304;DHT22;59091;47.446;19.148;2023-03-23T06:28:45;10.65;65.85
71304;DHT22;59091;47.446;19.148;2023-03-23T06:31:10;10.81;65.01
71304;DHT22;59091;47.446;19.148;2023-03-23T06:33:37;10.89;62.99
71304;DHT22;59091;47.446;19.148;2023-03-23T06:36:04;11.04;62.93
71304;DHT22;59091;47.446;19.148;2023-03-23T06:38:30;11.09;62.19
71304;DHT22;59091;47.446;19.148;2023-03-23T06:40:56;11.65;72.34
71304;DHT22;59091;47.446;19.148;2023-03-23T06:43:23;11.86;70.95
71304;DHT22;59091;47.446;19.148;2023-03-23T06:45:49;12.04;66.05
71304;DHT22;59091;47.446;19.148;2023-03-23T06:48:15;12.28;67.94
71304;DHT22;59091;47.446;19.148;2023-03-23T06:50:45;12.22;61.32
71304;DHT22;59091;47.446;19.148;2023-03-23T06:53:11;12.25;60.75
71304;DHT22;59091;47.446;19.148;2023-03-23T06:55:37;12.22;60.11
71304;DHT22;59091;47.446;19.148;2023-03-23T06:58:04;12.28;60.12
71304;DHT22;59091;47.446;19.148;2023-03-23T07:00:31;12.34;60.27
71304;DHT22;59091;47.446;19.148;2023-03-23T07:02:56;12.86;74.36
71304;DHT22;59091;47.446;19.148;2023-03-23T07:05:22;13.70;67.76
71304;DHT22;59091;47.446;19.148;2023-03-23T07:07:47;13.67;58.04
71304;DHT22;59091;47.446;19.148;2023-03-23T07:10:13;13.54;56.58
71304;DHT22;59091;47.446;19.148;2023-03-23T07:12:38;13.39;56.14
71304;DHT22;59091;47.446;19.148;2023-03-23T07:15:06;13.23;55.72
71304;DHT22;59091;47.446;19.148;2023-03-23T07:17:34;13.31;56.08
71304;DHT22;59091;47.446;19.148;2023-03-23T07:20:00;13.24;56.30
71304;DHT22;59091;47.446;19.148;2023-03-23T07:22:25;13.28;57.54
71304;DHT22;59091;47.446;19.148;2023-03-23T07:24:51;13.14;57.29
71304;DHT22;59091;47.446;19.148;2023-03-23T07:27:16;13.14;56.69
71304;DHT22;59091;47.446;19.148;2023-03-23T07:29:42;13.34;56.40
71304;DHT22;59091;47.446;19.148;2023-03-23T07:32:10;13.20;56.03
71304;DHT22;59091;47.446;19.148;2023-03-23T07:34:37;13.34;56.59
71304;DHT22;59091;47.446;19.148;2023-03-23T07:37:03;13.62;55.91
71304;DHT22;59091;47.446;19.148;2023-03-23T07:39:28;13.71;55.32
71304;DHT22;59091;47.446;19.148;2023-03-23T07:41:54;13.78;55.55
71304;DHT22;59091;47.446;19.148;2023-03-23T07:44:19;13.99;55.61
71304;DHT22;59091;47.446;19.148;2023-03-23T07:46:45;14.05;55.04
71304;DHT22;59091;47.446;19.148;2023-03-23T07:49:12;14.19;55.12
71304;DHT22;59091;47.446;19.148;2023-03-23T07:51:37;14.22;54.44
71304;DHT22;59091;47.446;19.148;2023-03-23T07:54:06;14.37;54.11
71304;DHT22;59091;47.446;19.148;2023-03-23T07:56:35;14.30;53.22
71304;DHT22;59091;47.446;19.148;2023-03-23T07:59:05;14.46;53.88
71304;DHT22;59091;47.446;19.148;2023-03-23T08:01:31;14.62;52.92
71304;DHT22;59091;47.446;19.148;2023-03-23T08:03:57;14.59;52.53
71304;DHT22;59091;47.446;19.148;2023-03-23T08:06:23;14.79;51.85
71304;DHT22;59091;47.446;19.148;2023-03-23T08:08:49;14.88;52.54
71304;DHT22;59091;47.446;19.148;2023-03-23T08:11:16;15.02;57.03
71304;DHT22;59091;47.446;19.148;2023-03-23T08:13:42;15.15;51.84
71304;DHT22;59091;47.446;19.148;2023-03-23T08:16:08;15.12;51.19
71304;DHT22;59091;47.446;19.148;2023-03-23T08:18:35;15.22;51.09
71304;DHT22;59091;47.446;19.148;2023-03-23T08:21:01;15.30;50.16
71304;DHT22;59091;47.446;19.148;2023-03-23T08:23:28;15.41;50.20
71304;DHT22;59091;47.446;19.148;2023-03-23T08:25:53;15.46;50.92
71304;DHT22;59091;47.446;19.148;2023-03-23T08:28:19;15.51;51.28
71304;DHT22;59091;47.446;19.148;2023-03-23T08:30:44;15.61;50.85
71304;DHT22;59091;47.446;19.148;2023-03-23T08:33:10;15.79;50.25
71304;DHT22;59091;47.446;19.148;2023-03-23T08:35:36;15.82;49.81
71304;DHT22;59091;47.446;19.148;2023-03-23T08:38:02;15.97;50.36
71304;DHT22;59091;47.446;19.148;2023-03-23T08:40:28;16.04;49.51
71304;DHT22;59091;47.446;19.148;2023-03-23T08:42:54;16.23;49.45
71304;DHT22;59091;47.446;19.148;2023-03-23T08:45:22;16.44;48.32
71304;DHT22;59091;47.446;19.148;2023-03-23T08:47:49;16.65;48.36
71304;DHT22;59091;47.446;19.148;2023-03-23T08:50:20;16.69;48.73
71304;DHT22;59091;47.446;19.148;2023-03-23T08:52:45;16.72;48.30
71304;DHT22;59091;47.446;19.148;2023-03-23T08:55:12;17.05;56.79
71304;DHT22;59091;47.446;19.148;2023-03-23T08:57:39;17.35;51.00
71304;DHT22;59091;47.446;19.148;2023-03-23T09:00:07;17.71;52.96
71304;DHT22;59091;47.446;19.148;2023-03-23T09:02:41;18.12;54.34
71304;DHT22;59091;47.446;19.148;2023-03-23T09:05:08;18.46;53.12
71304;DHT22;59091;47.446;19.148;2023-03-23T09:07:36;18.70;52.74
71304;DHT22;59091;47.446;19.148;2023-03-23T09:10:02;19.11;51.81
71304;DHT22;59091;47.446;19.148;2023-03-23T09:12:28;19.17;45.63
71304;DHT22;59091;47.446;19.148;2023-03-23T09:14:55;18.99;43.38
71304;DHT22;59091;47.446;19.148;2023-03-23T09:17:20;18.77;44.52
71304;DHT22;59091;47.446;19.148;2023-03-23T09:19:45;18.99;43.58
71304;DHT22;59091;47.446;19.148;2023-03-23T09:22:11;18.97;42.57
71304;DHT22;59091;47.446;19.148;2023-03-23T09:24:37;18.90;41.97
71304;DHT22;59091;47.446;19.148;2023-03-23T09:27:03;19.02;42.90
71304;DHT22;59091;47.446;19.148;2023-03-23T09:29:29;19.14;42.58
71304;DHT22;59091;47.446;19.148;2023-03-23T09:31:55;19.18;42.83
71304;DHT22;59091;47.446;19.148;2023-03-23T09:34:21;19.18;42.50
71304;DHT22;59091;47.446;19.148;2023-03-23T09:36:47;19.17;42.63
71304;DHT22;59091;47.446;19.148;2023-03-23T09:39:13;19.06;41.80
71304;DHT22;59091;47.446;19.148;2023-03-23T09:44:09;19.04;43.77
71304;DHT22;59091;47.446;19.148;2023-03-23T09:46:59;19.16;44.54
71304;DHT22;59091;47.446;19.148;2023-03-23T09:49:42;19.31;42.62
71304;DHT22;59091;47.446;19.148;2023-03-23T09:52:14;19.55;42.45
71304;DHT22;59091;47.446;19.148;2023-03-23T09:54:43;19.78;43.09
71304;DHT22;59091;47.446;19.148;2023-03-23T09:57:28;19.89;40.66
71304;DHT22;59091;47.446;19.148;2023-03-23T10:00:35;20.28;44.47
71304;DHT22;59091;47.446;19.148;2023-03-23T10:03:13;20.23;41.10
71304;DHT22;59091;47.446;19.148;2023-03-23T10:05:44;20.50;38.55
71304;DHT22;59091;47.446;19.148;2023-03-23T10:08:18;20.64;37.99
71304;DHT22;59091;47.446;19.148;2023-03-23T10:16:21;21.10;37.00
71304;DHT22;59091;47.446;19.148;2023-03-23T10:19:23;21.27;36.70
71304;DHT22;59091;47.446;19.148;2023-03-23T10:21:55;21.22;36.62
71304;DHT22;59091;47.446;19.148;2023-03-23T10:24:29;21.28;35.84
71304;DHT22;59091;47.446;19.148;2023-03-23T10:27:14;21.55;35.96
71304;DHT22;59091;47.446;19.148;2023-03-23T10:29:47;21.38;34.85
71304;DHT22;59091;47.446;19.148;2023-03-23T10:32:18;21.69;34.99
71304;DHT22;59091;47.446;19.148;2023-03-23T10:35:13;21.76;35.51
71304;DHT22;59091;47.446;19.148;2023-03-23T10:37:47;21.89;34.61
71304;DHT22;59091;47.446;19.148;2023-03-23T10:40:17;21.99;34.36
71304;DHT22;59091;47.446;19.148;2023-03-23T10:42:44;21.86;34.52
71304;DHT22;59091;47.446;19.148;2023-03-23T10:45:19;21.92;33.79
71304;DHT22;59091;47.446;19.148;2023-03-23T10:47:51;21.96;34.27
71304;DHT22;59091;47.446;19.148;2023-03-23T10:50:23;21.75;34.98
71304;DHT22;59091;47.446;19.148;2023-03-23T10:52:50;21.69;34.45
71304;DHT22;59091;47.446;19.148;2023-03-23T10:55:21;21.99;37.51
71304;DHT22;59091;47.446;19.148;2023-03-23T10:58:09;21.90;34.76
71304;DHT22;59091;47.446;19.148;2023-03-23T11:00:46;21.80;34.58
71304;DHT22;59091;47.446;19.148;2023-03-23T11:05:48;22.07;36.50
71304;DHT22;59091;47.446;19.148;2023-03-23T11:08:27;22.16;34.34
71304;DHT22;59091;47.446;19.148;2023-03-23T11:11:06;22.21;33.61
71304;DHT22;59091;47.446;19.148;2023-03-23T11:13:32;21.94;33.74
71304;DHT22;59091;47.446;19.148;2023-03-23T11:15:59;22.17;33.00
71304;DHT22;59091;47.446;19.148;2023-03-23T11:18:41;22.17;33.16
71304;DHT22;59091;47.446;19.148;2023-03-23T11:21:09;22.24;33.32
71304;DHT22;59091;47.446;19.148;2023-03-23T11:23:39;22.23;33.31
71304;DHT22;59091;47.446;19.148;2023-03-23T11:26:28;22.36;32.22
71304;DHT22;59091;47.446;19.148;2023-03-23T11:31:27;22.48;32.94
71304;DHT22;59091;47.446;19.148;2023-03-23T11:33:57;22.60;33.11
71304;DHT22;59091;47.446;19.148;2023-03-23T11:36:35;22.60;33.56
71304;DHT22;59091;47.446;19.148;2023-03-23T11:39:02;22.55;33.60
71304;DHT22;59091;47.446;19.148;2023-03-23T11:41:33;22.72;32.31
71304;DHT22;59091;47.446;19.148;2023-03-23T11:44:03;22.75;32.72
71304;DHT22;59091;47.446;19.148;2023-03-23T11:46:42;22.58;32.20
71304;DHT22;59091;47.446;19.148;2023-03-23T11:52:13;22.54;32.74
71304;DHT22;59091;47.446;19.148;2023-03-23T11:54:55;22.18;33.77
71304;DHT22;59091;47.446;19.148;2023-03-23T11:57:22;22.27;33.50
71304;DHT22;59091;47.446;19.148;2023-03-23T11:59:49;22.24;33.10
71304;DHT22;59091;47.446;19.148;2023-03-23T12:14:06;21.92;34.77
71304;DHT22;59091;47.446;19.148;2023-03-23T12:16:58;21.90;34.21
71304;DHT22;59091;47.446;19.148;2023-03-23T12:19:30;21.65;34.30
71304;DHT22;59091;47.446;19.148;2023-03-23T12:27:49;21.67;35.04
71304;DHT22;59091;47.446;19.148;2023-03-23T12:44:08;21.86;33.38
71304;DHT22;59091;47.446;19.148;2023-03-23T12:49:41;21.75;34.84
71304;DHT22;59091;47.446;19.148;2023-03-23T12:54:44;22.16;34.16
71304;DHT22;59091;47.446;19.148;2023-03-23T12:59:48;22.36;33.87
71304;DHT22;59091;47.446;19.148;2023-03-23T13:02:34;22.39;33.92
71304;DHT22;59091;47.446;19.148;2023-03-23T13:08:14;22.33;33.51
71304;DHT22;59091;47.446;19.148;2023-03-23T13:10:48;22.48;32.84
71304;DHT22;59091;47.446;19.148;2023-03-23T13:13:18;22.52;32.61
71304;DHT22;59091;47.446;19.148;2023-03-23T13:16:02;22.52;32.70
71304;DHT22;59091;47.446;19.148;2023-03-23T13:21:30;22.61;33.00
71304;DHT22;59091;47.446;19.148;2023-03-23T13:24:03;22.65;32.95
71304;DHT22;59091;47.446;19.148;2023-03-23T13:26:30;22.55;32.80
71304;DHT22;59091;47.446;19.148;2023-03-23T13:29:01;22.37;32.70
71304;DHT22;59091;47.446;19.148;2023-03-23T13:31:35;22.43;33.78
71304;DHT22;59091;47.446;19.148;2023-03-23T13:36:58;22.34;33.56
71304;DHT22;59091;47.446;19.148;2023-03-23T13:39:34;22.39;33.78
71304;DHT22;59091;47.446;19.148;2023-03-23T13:42:19;22.25;33.38
71304;DHT22;59091;47.446;19.148;2023-03-23T13:55:19;22.21;33.98
71304;DHT22;59091;47.446;19.148;2023-03-23T13:57:55;22.20;34.49
71304;DHT22;59091;47.446;19.148;2023-03-23T14:03:13;22.20;33.21
71304;DHT22;59091;47.446;19.148;2023-03-23T14:05:50;22.20;34.77
71304;DHT22;59091;47.446;19.148;2023-03-23T14:10:55;22.10;34.48
71304;DHT22;59091;47.446;19.148;2023-03-23T14:16:13;22.03;34.58
71304;DHT22;59091;47.446;19.148;2023-03-23T14:18:42;21.89;35.08
71304;DHT22;59091;47.446;19.148;2023-03-23T14:21:30;21.99;34.09
71304;DHT22;59091;47.446;19.148;2023-03-23T14:24:00;21.90;34.13
71304;DHT22;59091;47.446;19.148;2023-03-23T14:26:26;21.78;34.81
71304;DHT22;59091;47.446;19.148;2023-03-23T14:28:52;21.88;34.39
71304;DHT22;59091;47.446;19.148;2023-03-23T14:31:26;21.83;34.68
71304;DHT22;59091;47.446;19.148;2023-03-23T14:33:53;21.86;35.10
71304;DHT22;59091;47.446;19.148;2023-03-23T14:36:30;21.83;35.10
71304;DHT22;59091;47.446;19.148;2023-03-23T14:39:14;21.69;34.60
71304;DHT22;59091;47.446;19.148;2023-03-23T14:41:40;21.69;35.54
71304;DHT22;59091;47.446;19.148;2023-03-23T14:44:10;21.65;35.19
71304;DHT22;59091;47.446;19.148;2023-03-23T14:46:37;21.69;35.02
71304;DHT22;59091;47.446;19.148;2023-03-23T14:49:04;21.67;34.62
71304;DHT22;59091;47.446;19.148;2023-03-23T14:51:30;21.52;35.19
71304;DHT22;59091;47.446;19.148;2023-03-23T14:53:58;21.66;35.44
71304;DHT22;59091;47.446;19.148;2023-03-23T14:56:33;21.66;35.21
71304;DHT22;59091;47.446;19.148;2023-03-23T14:59:03;21.56;35.03
71304;DHT22;59091;47.446;19.148;2023-03-23T15:01:32;21.58;36.01
71304;DHT22;59091;47.446;19.148;2023-03-23T15:06:34;21.69;35.14
71304;DHT22;59091;47.446;19.148;2023-03-23T15:09:04;21.75;35.29
71304;DHT22;59091;47.446;19.148;2023-03-23T15:11:33;21.79;35.79
71304;DHT22;59091;47.446;19.148;2023-03-23T15:14:08;21.78;35.12
71304;DHT22;59091;47.446;19.148;2023-03-23T15:16:35;21.79;35.46
71304;DHT22;59091;47.446;19.148;2023-03-23T15:19:19;21.72;36.07
71304;DHT22;59091;47.446;19.148;2023-03-23T15:21:54;21.58;35.16
71304;DHT22;59091;47.446;19.148;2023-03-23T15:24:33;21.53;35.06
71304;DHT22;59091;47.446;19.148;2023-03-23T15:27:11;21.63;34.99
71304;DHT22;59091;47.446;19.148;2023-03-23T15:29:49;21.69;35.05
71304;DHT22;59091;47.446;19.148;2023-03-23T15:32:27;21.66;35.20
71304;DHT22;59091;47.446;19.148;2023-03-23T15:34:53;21.73;35.45
71304;DHT22;59091;47.446;19.148;2023-03-23T15:37:31;21.73;35.25
71304;DHT22;59091;47.446;19.148;2023-03-23T15:39:58;21.61;35.57
71304;DHT22;59091;47.446;19.148;2023-03-23T15:42:27;21.63;35.61
71304;DHT22;59091;47.446;19.148;2023-03-23T15:47:44;21.46;36.08
71304;DHT22;59091;47.446;19.148;2023-03-23T15:52:45;21.22;36.54
71304;DHT22;59091;47.446;19.148;2023-03-23T15:55:29;21.28;36.12
71304;DHT22;59091;47.446;19.148;2023-03-23T15:58:00;21.27;36.70
71304;DHT22;59091;47.446;19.148;2023-03-23T16:00:30;21.11;36.26
71304;DHT22;59091;47.446;19.148;2023-03-23T16:02:58;21.10;36.83
71304;DHT22;59091;47.446;19.148;2023-03-23T16:05:25;21.11;37.07
71304;DHT22;59091;47.446;19.148;2023-03-23T16:07:51;21.05;38.55
71304;DHT22;59091;47.446;19.148;2023-03-23T16:10:19;20.95;36.95
71304;DHT22;59091;47.446;19.148;2023-03-23T16:12:45;20.91;37.50
71304;DHT22;59091;47.446;19.148;2023-03-23T16:15:12;20.77;38.86
71304;DHT22;59091;47.446;19.148;2023-03-23T16:17:37;20.77;38.15
71304;DHT22;59091;47.446;19.148;2023-03-23T16:20:11;20.69;37.52
71304;DHT22;59091;47.446;19.148;2023-03-23T16:22:37;20.59;37.66
71304;DHT22;59091;47.446;19.148;2023-03-23T16:25:02;20.50;39.79
71304;DHT22;59091;47.446;19.148;2023-03-23T16:27:28;20.43;38.06
71304;DHT22;59091;47.446;19.148;2023-03-23T16:29:54;20.40;43.12
71304;DHT22;59091;47.446;19.148;2023-03-23T16:32:19;20.44;42.81
71304;DHT22;59091;47.446;19.148;2023-03-23T16:34:45;20.32;38.86
71304;DHT22;59091;47.446;19.148;2023-03-23T16:37:10;20.23;38.78
71304;DHT22;59091;47.446;19.148;2023-03-23T16:39:42;20.18;38.66
71304;DHT22;59091;47.446;19.148;2023-03-23T16:42:07;20.09;38.97
71304;DHT22;59091;47.446;19.148;2023-03-23T16:44:33;19.99;39.16
71304;DHT22;59091;47.446;19.148;2023-03-23T16:46:59;19.85;39.64
71304;DHT22;59091;47.446;19.148;2023-03-23T16:49:24;19.74;39.59
71304;DHT22;59091;47.446;19.148;2023-03-23T16:51:50;19.68;39.72
71304;DHT22;59091;47.446;19.148;2023-03-23T16:54:15;19.67;39.89
71304;DHT22;59091;47.446;19.148;2023-03-23T16:56:41;19.58;40.01
71304;DHT22;59091;47.446;19.148;2023-03-23T16:59:11;19.48;40.22
71304;DHT22;59091;47.446;19.148;2023-03-23T17:01:36;19.37;41.05
71304;DHT22;59091;47.446;19.148;2023-03-23T17:04:02;19.28;41.32
71304;DHT22;59091;47.446;19.148;2023-03-23T17:06:28;19.18;41.98
71304;DHT22;59091;47.446;19.148;2023-03-23T17:08:53;19.09;42.47
71304;DHT22;59091;47.446;19.148;2023-03-23T17:11:19;19.02;41.41
71304;DHT22;59091;47.446;19.148;2023-03-23T17:13:44;18.92;41.27
71304;DHT22;59091;47.446;19.148;2023-03-23T17:16:10;18.87;43.53
71304;DHT22;59091;47.446;19.148;2023-03-23T17:18:35;18.86;44.84
71304;DHT22;59091;47.446;19.148;2023-03-23T17:21:01;18.80;42.78
71304;DHT22;59091;47.446;19.148;2023-03-23T17:23:26;18.72;42.04